Rake, Iowa
Current Conditions -  °F | °C
As of 4:55 AM on Saturday 25 Oct 2014 (Local Time) from KFXY Reporting Station
Clear Clear  
Wind Chill: 10°   Ceiling: Unl
Heat Index: 10°   Visibility: 10mi
Dew Point:   Wind: 6mph
Humidity: 76%   Direction: 290°WNW
Pressure: 30.01"   Gusts: NA
Location:  43.48°N, 93.92°W
Report Text: KFXY 250955Z AUTO 29005KT 10SM CLR 10/06 A3001 RMK AO2
Loading
Personal Weather Stations






























Interactive Weather Map
Tropical Storm Tracking
New forecast layout! Learn more

10-Day Weather Forecast

Advertisements
Track Severe Weather on mobile